Airfield :
LOGIN :

Register | Disclaimer

   EN    FR    IT 

 










Legend :    VFR   Marginal VFR   IFR   Intensive IFR   Very Intensive IFR
Visi :
Ceiling :
>= 8 km
>= 3000ft
5 to 8 km
1000 to 3000 ft
1500m to 5 km
500 to 1000 ft
800 to 1500m
200 to 500 ft
< 800m
< 200 ft
Symbols :   Thunderstorms  Fog  Heavy snow  Heavy precipitations  Wind > 20 kt
SIGMETs :     Misc.  Thunderstorms  Icing  Turbulence  Mountain Waves  Volcanic Ashes






- Airport Elevation : 158 ft
- IATA code : QAR


EHDL - Deelen Airbase

CURRENT METAR :
  • 142355Z AUTO 05006KT 010V100 9999 OVC170 02/02 Q1003 BLU

EXPIRED METARs :
  • 142325Z AUTO 05006KT 350V090 9999 OVC170 03/02 Q1003 BLU
  • 142255Z AUTO 05008KT 360V090 9999 OVC200 03/02 Q1003 BLU
  • 142225Z AUTO 04006KT 360V080 9999 OVC120 03/02 Q1003 BLU
  • 142155Z AUTO 06006KT 350V090 9999 OVC130 05/03 Q1004 BLU
  • 142125Z AUTO 07007KT 360V100 9999 SCT080 BKN086 OVC093 05/03 Q1004 BLU
  • 142055Z AUTO 08005KT 020V120 9999 FEW065 SCT081 BKN091 05/03 Q1004 BLU

Expired Forecast.



MET'MAP, your aeronautical weather chart ! - Copyright ORBIFLY December 2007 - Disclaimer

ORBIFLY MET'MAP TEAM :

Programming & Development : Alexandra Zaïnal
Concept & Development : Baudouin d'Aumeries
Co-Development & Prog : Marc-Olivier Méhu
Technical & hardware support : Manuel Goepfert

Contact : metmap@orbifly.com




SOURCES & CREDITS :

   NOAA